Latest Weather Observations for Williamson

IDQ60801

Issued at 9:13 am EST Tuesday 7 December 2021 (issued every 10 minutes, with the page automatically refreshed every 10 minutes)

About weather observations | Map of weather stations | Latest weather observations for QLD | Other Formats
Station Details ID: 033195 Name: WILLIAMSON Lat: -22.47 Lon: 150.18 Height: 27.6 m
Data from the previous 72 hours. | See also: Recent months at Williamson
Date/Time
EST
Temp
°C
App
Temp
°C
Dew
Point
°C
Rel
Hum
%
Delta-T
°C
Wind Press
QNH
hPa
Press
MSL
hPa
Rain since
9am
mm
Dir  Spd
km/h
Gust
km/h
Spd
kts
Gust
kts
07/09:00am 28.6 30.4 20.3 60 5.5 E 11 20 6 11 1013.1 1012.9 0.0
07/08:30am 28.5 29.8 20.2 60 5.5 E 13 19 7 10 1013.4 1013.2 0.0
07/08:00am 27.7 29.5 20.3 64 4.9 ESE 11 20 6 11 1013.3 1013.1 0.0
07/07:30am 26.7 28.5 20.3 68 4.2 E 11 22 6 12 1013.3 1013.1 0.0
07/07:00am 25.6 28.8 21.3 77 2.8 SSE 6 9 3 5 1013.0 1012.8 0.0
07/06:30am 24.0 27.2 21.3 85 1.8 SE 6 9 3 5 1013.0 1012.8 0.0
07/06:00am 23.2 26.1 21.8 92 0.9 SSW 9 13 5 7 1013.1 1012.9 0.0
07/05:30am 22.3 25.8 21.8 97 0.3 SSW 6 7 3 4 1012.5 1012.3 0.0
07/05:00am 22.5 26.9 21.3 93 0.8 CALM 0 0 0 0 1012.3 1012.1 0.0
07/04:30am 22.7 25.9 21.2 91 1.0 S 6 9 3 5 1012.0 1011.8 0.0
07/04:00am 22.7 25.9 21.2 91 1.0 S 6 11 3 6 1011.9 1011.7 0.0
07/03:30am 23.0 25.8 20.5 86 1.6 SSE 6 7 3 4 1011.6 1011.4 0.0
07/03:00am 23.2 26.1 20.7 86 1.6 S 6 7 3 4 1011.4 1011.2 0.0
07/02:30am 23.3 25.9 20.1 82 2.1 S 6 7 3 4 1011.5 1011.3 0.0
07/02:00am 24.2 26.6 19.7 76 2.9 SE 6 9 3 5 1011.7 1011.5 0.0
07/01:30am 24.4 26.6 19.7 75 3.0 SE 7 9 4 5 1011.8 1011.6 0.0
07/01:00am 24.5 26.4 19.8 75 3.0 ESE 9 15 5 8 1012.0 1011.8 0.0
07/12:30am 24.8 26.6 19.6 73 3.4 ESE 9 15 5 8 1012.3 1012.1 0.0
07/12:00am 24.6 27.0 20.1 76 2.9 ESE 7 9 4 5 1012.4 1012.2 0.0
 
Date/Time
EST
Temp
°C
App
Temp
°C
Dew
Point
°C
Rel
Hum
%
Delta-T
°C
Wind Press
QNH
hPa
Press
MSL
hPa
Rain since
9am
mm
Dir  Spd
km/h
Gust
km/h
Spd
kts
Gust
kts
06/11:30pm 24.9 27.5 20.4 76 2.9 E 7 11 4 6 1012.5 1012.3 0.0
06/11:00pm 24.9 27.6 20.6 77 2.8 ESE 7 13 4 7 1012.9 1012.7 0.0
06/10:30pm 24.9 27.8 21.0 79 2.6 ESE 7 13 4 7 1013.2 1013.0 0.0
06/10:00pm 25.1 27.1 20.8 77 2.8 ESE 11 15 6 8 1013.0 1012.8 0.0
06/09:30pm 25.0 27.4 20.9 78 2.7 E 9 17 5 9 1012.9 1012.7 0.0
06/09:00pm 24.9 27.6 20.6 77 2.8 E 7 11 4 6 1012.7 1012.5 0.0
06/08:30pm 25.1 27.7 20.4 75 3.1 ESE 7 15 4 8 1012.3 1012.1 0.0
06/08:00pm 25.4 27.5 20.2 73 3.4 ESE 9 15 5 8 1012.1 1011.9 0.0
06/07:30pm 25.7 27.3 20.0 71 3.7 ESE 11 17 6 9 1012.1 1011.9 0.0
06/07:00pm 25.9 27.6 19.3 67 4.3 E 9 15 5 8 1011.5 1011.3 0.0
06/06:30pm 26.3 28.5 20.4 70 3.9 E 9 17 5 9 1011.1 1010.9 0.0
06/06:00pm 26.9 28.3 20.3 67 4.3 E 13 24 7 13 1010.7 1010.5 0.0
06/05:30pm 27.6 28.9 20.2 64 4.9 ENE 13 28 7 15 1010.2 1010.0 0.0
06/05:00pm 27.6 28.9 20.2 64 4.9 ENE 13 24 7 13 1009.8 1009.6 0.0
06/04:30pm 28.3 28.9 20.3 62 5.3 E 17 28 9 15 1009.7 1009.5 0.0
06/04:00pm 27.8 29.2 21.1 67 4.5 ENE 15 32 8 17 1009.9 1009.7 0.0
06/03:30pm 27.9 29.4 19.7 61 5.3 ENE 11 20 6 11 1010.0 1009.8 0.0
06/03:00pm 28.0 28.9 20.0 61 5.2 E 15 26 8 14 1010.1 1009.9 0.0
06/02:30pm 28.6 29.0 19.8 59 5.8 ENE 17 30 9 16 1010.2 1010.0 0.0
06/02:00pm 29.9 30.0 19.9 55 6.6 ENE 19 33 10 18 1010.2 1010.0 0.0
06/01:30pm 30.5 30.8 19.5 51 7.2 E 17 26 9 14 1010.4 1010.2 0.0
06/01:00pm 30.3 30.2 18.7 50 7.5 ESE 17 28 9 15 1010.6 1010.4 0.0
06/12:30pm 30.1 30.4 19.5 53 6.9 ENE 17 30 9 16 1011.0 1010.8 0.0
06/12:00pm 30.2 30.4 19.3 52 7.1 E 17 26 9 14 1011.2 1011.0 0.0
06/11:30am 30.3 30.4 18.4 49 7.7 E 15 26 8 14 1011.3 1011.1 0.0
06/11:00am 30.4 30.7 18.8 50 7.5 ESE 15 28 8 15 1011.7 1011.5 0.0
06/10:30am 29.8 30.8 19.5 54 6.7 E 13 22 7 12 1011.9 1011.7 0.0
06/10:00am 29.7 29.8 19.1 53 6.9 E 17 26 9 14 1012.1 1011.9 0.0
06/09:30am 29.4 29.8 19.1 54 6.7 E 15 22 8 12 1012.2 1012.0 0.0
06/09:00am 28.5 29.0 19.2 57 6.0 ESE 15 24 8 13 1012.1 1011.9 0.0
06/08:30am 28.6 28.6 19.0 56 6.2 E 17 30 9 16 1012.3 1012.1 0.0
06/08:00am 27.5 27.9 19.8 63 5.0 E 17 26 9 14 1012.5 1012.3 0.0
06/07:30am 27.1 28.2 19.7 64 4.8 E 13 22 7 12 1012.5 1012.3 0.0
06/07:00am 27.1 28.1 19.4 62 5.0 ESE 13 20 7 11 1012.2 1012.0 0.0
06/06:30am 26.7 28.9 19.6 65 4.6 E 7 11 4 6 1012.0 1011.8 0.0
06/06:00am 25.7 27.5 19.6 69 3.9 ESE 9 17 5 9 1011.8 1011.6 0.0
06/05:30am 24.7 26.2 19.8 74 3.2 ESE 11 17 6 9 1011.4 1011.2 0.0
06/05:00am 24.5 27.1 20.0 76 2.9 E 6 13 3 7 1011.1 1010.9 0.0
06/04:30am 24.8 26.1 20.1 75 3.1 ESE 13 20 7 11 1010.8 1010.6 0.0
06/04:00am 24.9 26.2 20.2 75 3.1 ESE 13 19 7 10 1010.5 1010.3 0.0
06/03:30am 24.6 26.7 20.1 76 2.9 ESE 9 17 5 9 1010.3 1010.1 0.0
06/03:00am 24.8 26.2 20.3 76 2.9 ESE 13 20 7 11 1010.1 1009.9 0.0
06/02:30am 24.7 26.4 20.2 76 2.9 SE 11 17 6 9 1010.4 1010.2 0.0
06/02:00am 24.9 26.7 20.4 76 2.9 ESE 11 15 6 8 1010.6 1010.4 0.0
06/01:30am 25.0 26.6 20.0 74 3.2 ESE 11 22 6 12 1010.9 1010.7 0.0
06/01:00am 25.5 27.1 19.9 71 3.6 ESE 11 17 6 9 1011.3 1011.1 0.0
06/12:30am 25.2 27.7 20.2 74 3.3 E 7 11 4 6 1011.5 1011.3 0.0
06/12:00am 25.2 26.4 20.0 73 3.4 ENE 13 20 7 11 1011.3 1011.1 0.0
 
Date/Time
EST
Temp
°C
App
Temp
°C
Dew
Point
°C
Rel
Hum
%
Delta-T
°C
Wind Press
QNH
hPa
Press
MSL
hPa
Rain since
9am
mm
Dir  Spd
km/h
Gust
km/h
Spd
kts
Gust
kts
05/11:30pm 25.3 26.1 19.9 72 3.5 ESE 15 24 8 13 1011.7 1011.5 0.0
05/11:00pm 25.2 26.7 19.8 72 3.5 ESE 11 20 6 11 1012.3 1012.1 0.0
05/10:30pm 25.3 27.2 19.7 71 3.6 ESE 9 15 5 8 1012.3 1012.1 0.0
05/10:00pm 25.4 27.3 19.8 71 3.6 ESE 9 15 5 8 1012.2 1012.0 0.0
05/09:30pm 25.1 26.6 19.7 72 3.5 E 11 15 6 8 1011.8 1011.6 0.0
05/09:00pm 25.5 26.2 19.6 70 3.8 E 15 24 8 13 1011.0 1010.8 0.0
05/08:30pm 25.5 26.6 19.6 70 3.8 E 13 22 7 12 1011.2 1011.0 0.0
05/08:00pm 25.8 26.5 19.7 69 4.0 E 15 22 8 12 1011.5 1011.3 0.0
05/07:30pm 25.9 27.1 19.8 69 4.0 E 13 19 7 10 1011.4 1011.2 0.0
05/07:00pm 26.0 26.7 19.6 68 4.1 E 15 22 8 12 1010.7 1010.5 0.0
05/06:30pm 26.5 27.3 19.1 64 4.8 E 13 24 7 13 1010.2 1010.0 0.0
05/06:00pm 27.2 27.4 19.3 62 5.1 E 17 33 9 18 1009.7 1009.5 0.0
05/05:30pm 28.0 28.1 19.2 58 5.7 ENE 17 32 9 17 1009.3 1009.1 0.0
05/05:00pm 28.6 28.2 19.0 56 6.2 ENE 19 32 10 17 1008.9 1008.7 0.0
05/04:30pm 29.3 28.8 18.7 52 6.8 ENE 19 32 10 17 1008.7 1008.5 0.0
05/04:00pm 29.9 28.7 17.4 47 7.9 ENE 20 32 11 17 1008.5 1008.3 0.0
05/03:30pm 30.7 30.0 17.4 45 8.5 ENE 17 22 9 12 1008.5 1008.3 0.0
05/03:00pm 30.5 30.0 18.6 49 7.7 ENE 19 33 10 18 1008.8 1008.6 0.0
05/02:30pm 31.3 30.0 17.2 42 9.0 E 20 30 11 16 1008.8 1008.6 0.0
05/02:00pm 31.9 30.3 15.0 36 10.4 E 17 28 9 15 1008.8 1008.6 0.0
05/01:30pm 32.4 30.6 14.5 33 11.0 ENE 17 26 9 14 1009.1 1008.9 0.0
05/01:00pm 32.4 31.7 16.3 38 10.1 ENE 15 24 8 13 1009.4 1009.2 0.0
05/12:30pm 31.5 32.8 19.2 48 8.0 NNE 11 24 6 13 1009.5 1009.3 0.0
05/12:00pm 31.3 33.5 20.3 52 7.3 ENE 9 20 5 11 1009.8 1009.6 0.0
05/11:30am 30.8 33.7 20.7 55 6.7 NE 6 11 3 6 1010.2 1010.0 0.0
05/11:00am 29.8 31.4 19.2 53 6.9 S 9 15 5 8 1010.6 1010.4 0.0
05/10:30am 29.2 30.8 19.2 54 6.5 NNE 9 13 5 7 1011.0 1010.8 0.0
05/10:00am 28.1 30.5 18.8 57 6.0 WNW 4 9 2 5 1011.3 1011.1 0.0
05/09:30am 27.4 29.6 19.2 61 5.3 S 6 7 3 4 1011.5 1011.3 0.0
05/09:00am 26.7 28.1 18.6 61 5.2 S 9 15 5 8 1011.6 1011.4 0.0
05/08:30am 27.6 29.9 19.9 63 5.0 S 7 13 4 7 1011.8 1011.6 0.0
05/08:00am 27.1 28.8 20.2 66 4.5 SE 11 24 6 13 1012.5 1012.3 0.0
05/07:30am 26.2 27.7 20.5 71 3.7 ESE 13 26 7 14 1012.5 1012.3 0.0
05/07:00am 25.6 27.8 20.4 73 3.4 SE 9 15 5 8 1011.9 1011.7 0.0
05/06:30am 25.2 28.5 21.5 80 2.5 SSE 6 11 3 6 1011.6 1011.4 0.0
05/06:00am 23.8 27.9 23.0 95 0.5 SE 6 7 3 4 1011.1 1010.9 0.0
05/05:30am 22.8 26.5 22.5 98 0.2 E 7 11 4 6 1010.4 1010.2 0.0
05/05:00am 22.8 27.8 22.5 98 0.2 CALM 0 0 0 0 1010.1 1009.9 0.0
05/04:30am 22.9 27.1 22.4 97 0.3 SSE 4 9 2 5 1009.7 1009.5 0.0
05/04:00am 23.0 27.7 22.7 98 0.2 SSE 2 7 1 4 1009.9 1009.7 0.0
05/03:30am 23.2 27.7 22.9 98 0.2 S 4 6 2 3 1009.8 1009.6 0.0
05/03:00am 23.3 27.4 23.0 98 0.2 S 6 7 3 4 1009.5 1009.3 0.0
05/02:30am 23.2 28.4 22.9 98 0.2 CALM 0 0 0 0 1009.2 1009.0 0.0
05/02:00am 23.3 28.2 23.0 98 0.2 SSE 2 7 1 4 1009.4 1009.2 0.0
05/01:30am 23.2 28.4 22.9 98 0.2 CALM 0 0 0 0 1008.9 1008.7 0.0
05/01:00am 23.3 27.4 23.0 98 0.2 NE 6 7 3 4 1009.2 1009.0 0.0
05/12:30am 23.6 28.5 22.4 93 0.8 CALM 0 0 0 0 1009.8 1009.6 0.0
05/12:00am 24.4 28.8 22.1 87 1.5 E 2 11 1 6 1010.3 1010.1 0.0
 
Date/Time
EST
Temp
°C
App
Temp
°C
Dew
Point
°C
Rel
Hum
%
Delta-T
°C
Wind Press
QNH
hPa
Press
MSL
hPa
Rain since
9am
mm
Dir  Spd
km/h
Gust
km/h
Spd
kts
Gust
kts
04/11:30pm 24.1 27.7 22.0 88 1.4 NE 6 7 3 4 1010.6 1010.4 0.0
04/11:00pm 24.1 29.0 22.4 90 1.1 CALM 0 7 0 4 1010.9 1010.7 0.0
04/10:30pm 24.6 28.6 22.1 86 1.7 NNE 4 7 2 4 1011.1 1010.9 0.0
04/10:00pm 25.0 28.2 21.7 82 2.2 ESE 7 13 4 7 1011.1 1010.9 0.0
04/09:30pm 25.0 27.8 21.5 81 2.3 ENE 9 13 5 7 1010.6 1010.4 0.0
04/09:00pm 25.3 27.6 21.4 79 2.6 ENE 11 19 6 10 1010.2 1010.0 0.0
04/08:30pm 25.5 27.2 20.1 72 3.5 ENE 11 17 6 9 1010.1 1009.9 0.0
04/08:00pm 25.7 27.3 20.0 71 3.7 NE 11 17 6 9 1010.2 1010.0 0.0
04/07:30pm 25.9 28.4 20.2 71 3.7 NE 7 11 4 6 1009.9 1009.7 0.0
04/07:00pm 26.2 28.3 20.1 69 4.0 ENE 9 15 5 8 1009.3 1009.1 0.0
04/06:30pm 26.8 28.0 19.9 66 4.5 NE 13 26 7 14 1008.9 1008.7 0.0
04/06:00pm 27.8 29.1 20.1 63 5.1 NE 13 20 7 11 1008.6 1008.4 0.0
04/05:30pm 29.3 30.5 19.9 57 6.2 ENE 13 20 7 11 1008.3 1008.1 0.0
04/05:00pm 30.4 31.5 19.7 52 7.0 E 13 22 7 12 1008.3 1008.1 0.0
04/04:30pm 31.2 32.5 20.2 52 7.3 E 13 24 7 13 1008.1 1007.9 0.0
04/04:00pm 31.2 31.7 19.2 48 7.9 NE 15 22 8 12 1008.0 1007.8 0.0
04/03:30pm 30.9 31.6 18.9 48 7.8 ENE 13 24 7 13 1008.2 1008.0 0.0
04/03:00pm 31.7 32.0 18.7 46 8.5 E 15 22 8 12 1008.6 1008.4 0.0
04/02:30pm 32.5 33.5 18.7 44 9.0 ESE 11 20 6 11 1008.9 1008.7 0.0
04/02:00pm 32.8 32.5 17.4 39 9.9 SSW 15 24 8 13 1009.1 1008.9 0.0
04/01:30pm 33.0 33.6 18.7 42 9.3 SSW 13 24 7 13 1009.5 1009.3 0.0
04/01:00pm 32.6 33.0 19.8 46 8.5 SSW 17 24 9 13 1009.9 1009.7 0.0
04/12:30pm 32.0 33.0 18.6 45 8.7 S 11 24 6 13 1010.2 1010.0 0.0
04/12:00pm 31.7 33.0 20.9 52 7.2 SW 15 22 8 12 1010.6 1010.4 0.0
04/11:30am 31.1 31.9 19.1 48 7.8 S 13 19 7 10 1011.2 1011.0 0.0
04/11:00am 31.3 33.9 21.2 55 6.8 SW 9 20 5 11 1011.7 1011.5 0.0
04/10:30am 30.6 31.5 19.3 51 7.4 SE 13 22 7 12 1012.0 1011.8 0.0
04/10:00am 29.8 30.3 19.2 53 6.9 SE 15 24 8 13 1012.5 1012.3 0.0
04/09:30am 29.7 30.3 19.4 54 6.7 SSE 15 28 8 15 1012.6 1012.4 0.0

Other formats

Comma delimited format used in spreadsheet applications
http://www.bom.gov.au/fwo/IDQ60801/IDQ60801.95370.axf

JavaScript Object Notation format (JSON) in row-major order
http://www.bom.gov.au/fwo/IDQ60801/IDQ60801.95370.json

Data quality

Most of these data are generated automatically and are frequently updated. Quality checks on data are not normally performed. It is possible for incorrect values to appear. Refer to information at About Latest Weather Observations and please check the disclaimer before using these data.